createdAt,value
2017-12-27T00:02:06.203Z,8.70
2017-12-27T00:04:41.763Z,9.93
2017-12-27T00:07:17.881Z,8.73
2017-12-27T00:09:53.175Z,9.10
2017-12-27T00:12:28.926Z,8.80
2017-12-27T00:15:04.367Z,9.60
2017-12-27T00:17:40.378Z,9.90
2017-12-27T00:20:15.905Z,9.33
2017-12-27T00:22:51.234Z,8.50
2017-12-27T00:25:26.963Z,8.97
2017-12-27T00:28:03.327Z,9.67
2017-12-27T00:30:39.525Z,9.53
2017-12-27T00:33:09.952Z,10.03
2017-12-27T00:35:41.911Z,11.90
2017-12-27T00:38:12.614Z,11.97
2017-12-27T00:40:43.801Z,10.97
2017-12-27T00:43:14.598Z,11.40
2017-12-27T00:45:44.989Z,13.17
2017-12-27T00:48:15.310Z,19.73
2017-12-27T00:50:45.706Z,64.70
2017-12-27T00:53:16.110Z,52.90
2017-12-27T00:55:46.814Z,22.80
2017-12-27T00:58:18.041Z,16.50
2017-12-27T01:00:48.414Z,16.83
2017-12-27T01:03:18.815Z,12.80
2017-12-27T01:05:49.919Z,11.90
2017-12-27T01:08:20.843Z,9.27
2017-12-27T01:10:51.279Z,9.20
2017-12-27T01:13:21.958Z,10.07
2017-12-27T01:15:53.179Z,9.20
2017-12-27T01:18:23.706Z,9.00
2017-12-27T01:20:54.097Z,8.43
2017-12-27T01:23:24.498Z,9.83
2017-12-27T01:28:29.906Z,11.70
2017-12-27T01:31:00.322Z,9.87
2017-12-27T01:33:30.811Z,8.73
2017-12-27T01:36:01.217Z,8.07
2017-12-27T01:38:32.483Z,9.40
2017-12-27T01:41:02.963Z,9.23
2017-12-27T01:43:33.674Z,10.17
2017-12-27T01:46:04.182Z,9.83
2017-12-27T01:48:34.686Z,9.23
2017-12-27T01:51:06.136Z,8.47
2017-12-27T01:53:37.266Z,8.50
2017-12-27T01:56:08.926Z,8.40
2017-12-27T01:58:40.210Z,10.07
2017-12-27T02:01:10.778Z,9.10
2017-12-27T02:03:41.250Z,9.53
2017-12-27T02:06:11.810Z,9.03
2017-12-27T02:08:42.323Z,9.10
2017-12-27T02:11:12.832Z,8.03
2017-12-27T02:13:44.614Z,9.40
2017-12-27T02:16:15.359Z,8.03
2017-12-27T02:18:46.234Z,7.80
2017-12-27T02:21:16.893Z,8.53
2017-12-27T02:23:48.145Z,8.50
2017-12-27T02:26:18.850Z,8.57
2017-12-27T02:28:49.398Z,9.53
2017-12-27T02:31:21.238Z,8.87
2017-12-27T02:33:51.846Z,8.73
2017-12-27T02:36:22.478Z,7.67
2017-12-27T02:38:59.323Z,7.47
2017-12-27T02:41:29.790Z,8.23
2017-12-27T02:44:00.611Z,8.37
2017-12-27T02:46:31.232Z,8.60
2017-12-27T02:49:01.934Z,7.90
2017-12-27T02:51:32.594Z,7.60
2017-12-27T02:54:03.277Z,7.40
2017-12-27T02:56:34.803Z,7.93
2017-12-27T02:59:05.598Z,8.30
2017-12-27T03:01:36.339Z,7.13
2017-12-27T03:04:06.973Z,7.80
2017-12-27T03:06:37.791Z,8.67
2017-12-27T03:09:08.411Z,6.93
2017-12-27T03:11:39.846Z,7.57
2017-12-27T03:14:11.559Z,8.50
2017-12-27T03:16:42.146Z,8.10
2017-12-27T03:19:13.408Z,8.00
2017-12-27T03:21:43.890Z,8.10
2017-12-27T03:24:14.763Z,7.67
2017-12-27T03:26:46.026Z,7.37
2017-12-27T03:29:17.423Z,7.90
2017-12-27T03:31:48.258Z,7.60
2017-12-27T03:34:18.898Z,7.47
2017-12-27T03:36:49.630Z,7.67
2017-12-27T03:39:20.410Z,6.97
2017-12-27T03:41:51.133Z,7.10
2017-12-27T03:44:22.252Z,7.67
2017-12-27T03:46:53.730Z,7.60
2017-12-27T03:49:24.575Z,7.10
2017-12-27T03:51:55.042Z,7.77
2017-12-27T03:54:25.788Z,8.03
2017-12-27T03:56:57.426Z,8.63
2017-12-27T03:59:28.077Z,8.60
2017-12-27T04:01:59.526Z,8.60
2017-12-27T04:04:30.054Z,8.73
2017-12-27T04:07:00.823Z,8.50
2017-12-27T04:09:31.523Z,8.70
2017-12-27T04:12:02.155Z,9.63
2017-12-27T04:14:33.230Z,8.90
2017-12-27T04:17:04.095Z,9.97
2017-12-27T04:19:34.986Z,9.63
2017-12-27T04:22:06.391Z,10.97
2017-12-27T04:24:37.132Z,10.57
2017-12-27T04:27:07.783Z,10.80
2017-12-27T04:29:38.579Z,9.93
2017-12-27T04:32:09.715Z,11.07
2017-12-27T04:34:40.550Z,11.70
2017-12-27T04:37:11.210Z,12.00
2017-12-27T04:39:41.983Z,11.53
2017-12-27T04:42:13.223Z,11.23
2017-12-27T04:44:45.144Z,9.93
2017-12-27T04:47:16.374Z,11.93
2017-12-27T04:49:47.361Z,11.98
2017-12-27T04:52:18.016Z,11.10
2017-12-27T04:54:49.850Z,16.97
2017-12-27T04:57:20.682Z,16.53
2017-12-27T04:59:51.679Z,14.43
2017-12-27T05:02:22.763Z,13.10
2017-12-27T05:04:53.626Z,12.57
2017-12-27T05:07:25.001Z,13.47
2017-12-27T05:09:55.927Z,13.97
2017-12-27T05:12:26.624Z,14.60
2017-12-27T05:14:57.918Z,17.57
2017-12-27T05:17:28.863Z,18.57
2017-12-27T05:19:59.723Z,18.87
2017-12-27T05:22:35.187Z,17.80
2017-12-27T05:25:05.883Z,15.93
2017-12-27T05:27:36.817Z,16.47
2017-12-27T05:30:07.716Z,13.90
2017-12-27T05:32:39.375Z,14.20
2017-12-27T05:35:10.744Z,19.00
2017-12-27T05:37:41.794Z,18.40
2017-12-27T05:40:12.827Z,14.60
2017-12-27T05:42:43.698Z,14.70
2017-12-27T05:45:14.730Z,14.50
2017-12-27T05:47:45.622Z,14.17
2017-12-27T05:50:17.150Z,13.10
2017-12-27T05:52:47.963Z,11.40
2017-12-27T05:55:19.062Z,14.10
2017-12-27T05:57:50.207Z,14.07
2017-12-27T06:00:21.058Z,13.33
2017-12-27T06:02:52.303Z,12.90
2017-12-27T06:05:22.966Z,12.77
2017-12-27T06:07:53.963Z,13.00
2017-12-27T06:10:25.639Z,11.77
2017-12-27T06:12:56.549Z,13.10
2017-12-27T06:15:28.208Z,11.60
2017-12-27T06:17:59.952Z,12.57
2017-12-27T06:20:31.602Z,12.17
2017-12-27T06:23:03.378Z,12.00
2017-12-27T06:25:34.931Z,12.63
2017-12-27T06:28:06.654Z,12.40
2017-12-27T06:30:37.439Z,12.20
2017-12-27T06:33:08.675Z,12.53
2017-12-27T06:35:39.881Z,12.00
2017-12-27T06:38:11.509Z,13.07
2017-12-27T06:40:42.318Z,13.57
2017-12-27T06:43:13.098Z,14.10
2017-12-27T06:45:44.682Z,12.57
2017-12-27T06:48:16.427Z,12.23
2017-12-27T06:50:47.307Z,12.10
2017-12-27T06:53:18.115Z,12.33
2017-12-27T06:55:49.775Z,11.90
2017-12-27T06:58:20.579Z,12.43
2017-12-27T07:00:51.459Z,12.47
2017-12-27T07:03:22.447Z,13.80
2017-12-27T07:05:53.270Z,11.50
2017-12-27T07:08:23.982Z,11.53
2017-12-27T07:10:54.815Z,11.93
2017-12-27T07:13:26.111Z,12.20
2017-12-27T07:15:57.206Z,12.03
2017-12-27T07:18:28.095Z,13.97
2017-12-27T07:20:59.072Z,13.10
2017-12-27T07:23:29.882Z,12.37
2017-12-27T07:26:01.663Z,13.20
2017-12-27T07:28:33.447Z,12.23
2017-12-27T07:31:04.355Z,12.07
2017-12-27T07:33:35.723Z,12.10
2017-12-27T07:36:06.655Z,13.20
2017-12-27T07:38:37.667Z,12.80
2017-12-27T07:41:09.712Z,13.27
2017-12-27T07:43:40.759Z,11.67
2017-12-27T07:46:12.149Z,11.30
2017-12-27T07:48:43.116Z,11.40
2017-12-27T07:51:14.511Z,11.30
2017-12-27T07:53:46.396Z,10.97
2017-12-27T07:56:17.254Z,12.93
2017-12-27T07:58:48.142Z,11.80
2017-12-27T08:01:20.015Z,12.47
2017-12-27T08:03:52.018Z,13.03
2017-12-27T08:06:22.914Z,11.43
2017-12-27T08:08:53.842Z,12.40
2017-12-27T08:11:25.595Z,12.90
2017-12-27T08:13:57.311Z,12.70
2017-12-27T08:16:28.546Z,12.67
2017-12-27T08:18:59.426Z,12.70
2017-12-27T08:21:30.190Z,13.70
2017-12-27T08:24:01.138Z,11.80
2017-12-27T08:26:32.530Z,12.90
2017-12-27T08:29:05.106Z,12.43
2017-12-27T08:31:36.034Z,12.90
2017-12-27T08:34:07.103Z,12.83
2017-12-27T08:36:37.898Z,12.97
2017-12-27T08:39:08.774Z,12.80
2017-12-27T08:41:39.540Z,12.20
2017-12-27T08:44:10.475Z,12.60
2017-12-27T08:46:42.484Z,12.93
2017-12-27T08:49:13.412Z,13.47
2017-12-27T08:51:44.406Z,13.03
2017-12-27T08:54:16.142Z,13.60
2017-12-27T08:56:47.006Z,12.93
2017-12-27T08:59:19.446Z,13.53
2017-12-27T09:01:50.241Z,14.43
2017-12-27T09:04:21.494Z,13.10
2017-12-27T09:06:52.408Z,13.63
2017-12-27T09:09:23.265Z,13.70
2017-12-27T09:11:54.140Z,13.87
2017-12-27T09:14:24.954Z,13.57
2017-12-27T09:16:56.100Z,12.70
2017-12-27T09:19:26.929Z,14.30
2017-12-27T09:21:58.478Z,13.23
2017-12-27T09:24:29.504Z,13.83
2017-12-27T09:27:00.318Z,13.23
2017-12-27T09:29:31.990Z,14.40
2017-12-27T09:32:02.818Z,13.73
2017-12-27T09:34:34.090Z,14.40
2017-12-27T09:37:04.934Z,12.50
2017-12-27T09:39:35.787Z,13.43
2017-12-27T09:42:07.491Z,14.40
2017-12-27T09:44:38.519Z,13.30
2017-12-27T09:47:10.406Z,13.37
2017-12-27T09:49:41.327Z,12.40
2017-12-27T09:52:12.482Z,13.20
2017-12-27T09:54:43.788Z,14.33
2017-12-27T09:57:14.575Z,16.97
2017-12-27T09:59:45.518Z,15.50
2017-12-27T10:02:16.325Z,14.77
2017-12-27T10:04:48.608Z,13.40
2017-12-27T10:07:19.599Z,13.73
2017-12-27T10:09:50.364Z,13.10
2017-12-27T10:12:22.027Z,13.73
2017-12-27T10:14:53.518Z,13.80
2017-12-27T10:17:26.712Z,13.00
2017-12-27T10:19:59.829Z,12.60
2017-12-27T10:22:32.610Z,13.77
2017-12-27T10:25:04.833Z,13.67
2017-12-27T10:27:39.272Z,12.70
2017-12-27T10:30:12.992Z,13.27
2017-12-27T10:32:45.467Z,13.37
2017-12-27T10:35:18.230Z,14.43
2017-12-27T10:37:51.372Z,13.47
2017-12-27T10:40:23.642Z,14.27
2017-12-27T10:42:55.953Z,14.57
2017-12-27T10:45:27.619Z,14.10
2017-12-27T10:47:59.459Z,14.50
2017-12-27T10:50:32.743Z,14.30
2017-12-27T10:53:05.522Z,13.40
2017-12-27T10:55:36.978Z,14.30
2017-12-27T10:58:08.542Z,14.33
2017-12-27T11:00:42.524Z,14.90
2017-12-27T11:03:14.058Z,13.50
2017-12-27T11:05:45.983Z,15.40
2017-12-27T11:08:17.512Z,14.97
2017-12-27T11:10:49.777Z,14.87
2017-12-27T11:13:20.837Z,14.70
2017-12-27T11:15:52.735Z,15.50
2017-12-27T11:18:24.095Z,15.03
2017-12-27T11:20:55.226Z,15.30
2017-12-27T11:23:26.394Z,14.53
2017-12-27T11:25:57.588Z,14.20
2017-12-27T11:28:28.762Z,14.60
2017-12-27T11:31:00.292Z,15.43
2017-12-27T11:33:32.202Z,14.13
2017-12-27T11:36:03.353Z,13.77
2017-12-27T11:38:34.540Z,14.57
2017-12-27T11:41:05.648Z,15.43
2017-12-27T11:43:37.573Z,15.17
2017-12-27T11:46:08.690Z,15.50
2017-12-27T11:48:40.290Z,14.73
2017-12-27T11:51:11.377Z,16.00
2017-12-27T11:53:43.247Z,14.57
2017-12-27T11:56:14.398Z,13.97
2017-12-27T11:58:45.546Z,14.67
2017-12-27T12:01:17.059Z,15.20
2017-12-27T12:03:48.961Z,16.03
2017-12-27T12:06:20.119Z,15.43
2017-12-27T12:08:51.356Z,16.30
2017-12-27T12:11:22.441Z,15.33
2017-12-27T12:13:53.563Z,15.30
2017-12-27T12:16:24.727Z,16.13
2017-12-27T12:18:56.212Z,15.67
2017-12-27T12:21:27.480Z,15.90
2017-12-27T12:23:58.795Z,16.10
2017-12-27T12:26:30.759Z,15.60
2017-12-27T12:29:01.951Z,16.40
2017-12-27T12:31:33.571Z,15.67
2017-12-27T12:34:04.851Z,16.23
2017-12-27T12:36:36.089Z,15.07
2017-12-27T12:39:07.560Z,14.30
2017-12-27T12:41:39.380Z,15.77
2017-12-27T12:44:11.052Z,14.60
2017-12-27T12:46:42.292Z,15.00
2017-12-27T12:49:13.875Z,16.70
2017-12-27T12:51:45.105Z,16.77
2017-12-27T12:54:16.363Z,15.90
2017-12-27T12:56:47.528Z,16.80
2017-12-27T12:59:18.783Z,15.97
2017-12-27T13:01:51.210Z,16.33
2017-12-27T13:04:22.435Z,16.30
2017-12-27T13:06:53.667Z,17.40
2017-12-27T13:09:25.146Z,17.50
2017-12-27T13:11:56.638Z,17.03
2017-12-27T13:14:28.556Z,17.13
2017-12-27T13:17:00.038Z,17.50
2017-12-27T13:19:32.512Z,18.23
2017-12-27T13:22:04.368Z,18.10
2017-12-27T13:24:35.957Z,17.10
2017-12-27T13:27:08.250Z,18.90
2017-12-27T13:29:39.567Z,19.20
2017-12-27T13:32:11.766Z,18.77
2017-12-27T13:34:42.983Z,19.37
2017-12-27T13:37:14.945Z,17.60
2017-12-27T13:39:47.019Z,18.43
2017-12-27T13:42:19.059Z,18.63
2017-12-27T13:44:50.759Z,18.90
2017-12-27T13:47:22.016Z,19.60
2017-12-27T13:49:53.621Z,18.90
2017-12-27T13:52:25.896Z,20.13
2017-12-27T13:54:58.930Z,19.80
2017-12-27T13:57:30.124Z,19.73
2017-12-27T14:00:01.341Z,19.63
2017-12-27T14:02:32.973Z,19.33
2017-12-27T14:05:04.250Z,19.67
2017-12-27T14:07:36.364Z,21.90
2017-12-27T14:10:07.669Z,21.03
2017-12-27T14:12:38.971Z,20.50
2017-12-27T14:15:10.810Z,21.23
2017-12-27T14:17:43.693Z,20.03
2017-12-27T14:20:16.440Z,18.73
2017-12-27T14:22:48.368Z,19.17
2017-12-27T14:25:19.759Z,19.40
2017-12-27T14:27:51.153Z,19.40
2017-12-27T14:30:22.505Z,20.40
2017-12-27T14:32:55.548Z,19.37
2017-12-27T14:35:26.794Z,19.70
2017-12-27T14:37:59.928Z,21.40
2017-12-27T14:40:31.282Z,20.00
2017-12-27T14:43:03.454Z,21.80
2017-12-27T14:45:35.144Z,21.20
2017-12-27T14:48:07.013Z,20.17
2017-12-27T14:50:38.661Z,21.70
2017-12-27T14:53:10.067Z,21.03
2017-12-27T14:55:41.428Z,22.33
2017-12-27T14:58:13.190Z,21.30
2017-12-27T15:00:44.598Z,22.30
2017-12-27T15:03:16.811Z,21.50
2017-12-27T15:05:48.138Z,21.60
2017-12-27T15:08:19.406Z,20.50
2017-12-27T15:10:50.688Z,22.33
2017-12-27T15:16:29.116Z,22.07
2017-12-27T15:18:59.649Z,22.53
2017-12-27T15:21:30.006Z,20.77
2017-12-27T15:24:00.333Z,22.73
2017-12-27T15:26:30.695Z,24.20
2017-12-27T15:29:01.052Z,22.60
2017-12-27T15:31:32.507Z,23.47
2017-12-27T15:34:03.588Z,24.37
2017-12-27T15:36:34.757Z,24.67
2017-12-27T15:39:06.246Z,23.60
2017-12-27T15:41:37.395Z,23.00
2017-12-27T15:44:08.536Z,23.13
2017-12-27T15:46:39.631Z,23.43
2017-12-27T15:49:10.373Z,25.07
2017-12-27T15:51:40.724Z,22.67
2017-12-27T15:54:11.196Z,23.07
2017-12-27T15:56:41.536Z,21.80
2017-12-27T15:59:11.903Z,24.07
2017-12-27T16:01:42.500Z,22.37
2017-12-27T16:04:13.809Z,22.97
2017-12-27T16:06:44.411Z,20.77
2017-12-27T16:09:15.397Z,22.70
2017-12-27T16:11:45.819Z,24.53
2017-12-27T16:14:16.208Z,22.53
2017-12-27T16:16:47.350Z,19.27
2017-12-27T16:19:17.947Z,18.57
2017-12-27T16:21:49.114Z,18.10
2017-12-27T16:24:19.452Z,17.03
2017-12-27T16:26:50.561Z,16.10
2017-12-27T16:29:20.935Z,15.27
2017-12-27T16:31:52.547Z,15.00
2017-12-27T16:34:22.868Z,15.03
2017-12-27T16:36:53.419Z,15.30
2017-12-27T16:39:23.739Z,15.33
2017-12-27T16:41:54.128Z,14.70
2017-12-27T16:44:24.502Z,14.77
2017-12-27T16:46:55.657Z,15.00
2017-12-27T16:49:27.097Z,14.50
2017-12-27T16:51:58.313Z,14.87
2017-12-27T16:54:28.668Z,14.43
2017-12-27T16:56:59.755Z,14.33
2017-12-27T16:59:30.109Z,13.93
2017-12-27T17:02:00.409Z,14.60
2017-12-27T17:04:30.732Z,13.00
2017-12-27T17:07:01.323Z,15.50
2017-12-27T17:09:32.479Z,14.43
2017-12-27T17:12:03.090Z,14.93
2017-12-27T17:14:34.196Z,15.33
2017-12-27T17:17:04.586Z,14.67
2017-12-27T17:19:35.258Z,14.20
2017-12-27T17:22:05.680Z,14.90
2017-12-27T17:24:36.101Z,15.70
2017-12-27T17:27:06.449Z,14.93
2017-12-27T17:29:36.844Z,13.40
2017-12-27T17:32:07.292Z,14.33
2017-12-27T17:34:37.680Z,15.50
2017-12-27T17:37:08.226Z,15.33
2017-12-27T17:39:38.549Z,15.00
2017-12-27T17:42:08.912Z,14.80
2017-12-27T17:44:39.235Z,15.17
2017-12-27T17:47:09.587Z,14.17
2017-12-27T17:49:40.088Z,15.87
2017-12-27T17:52:11.239Z,14.80
2017-12-27T17:54:42.785Z,14.80
2017-12-27T17:57:13.949Z,15.20
2017-12-27T17:59:45.140Z,16.00
2017-12-27T18:02:15.543Z,15.63
2017-12-27T18:04:45.860Z,17.20
2017-12-27T18:07:16.454Z,16.97
2017-12-27T18:09:46.774Z,15.40
2017-12-27T18:12:17.108Z,16.27
2017-12-27T18:14:48.245Z,16.23
2017-12-27T18:17:18.625Z,16.00
2017-12-27T18:19:48.954Z,14.80
2017-12-27T18:22:20.134Z,15.50
2017-12-27T18:24:50.779Z,16.43
2017-12-27T18:27:21.945Z,16.13
2017-12-27T18:29:52.280Z,14.97
2017-12-27T18:32:22.689Z,15.77
2017-12-27T18:34:53.787Z,17.17
2017-12-27T18:37:24.341Z,15.87
2017-12-27T18:39:55.476Z,17.30
2017-12-27T18:42:25.980Z,16.20
2017-12-27T18:44:57.221Z,17.40
2017-12-27T18:47:27.745Z,17.30
2017-12-27T18:49:58.308Z,17.60
2017-12-27T18:52:28.837Z,17.70
2017-12-27T18:54:59.370Z,17.37
2017-12-27T18:57:30.712Z,16.40
2017-12-27T19:00:01.292Z,15.40
2017-12-27T19:02:31.809Z,15.60
2017-12-27T19:05:02.251Z,17.60
2017-12-27T19:07:32.942Z,17.60
2017-12-27T19:10:04.244Z,16.07
2017-12-27T19:12:34.814Z,17.10
2017-12-27T19:15:05.922Z,16.30
2017-12-27T19:17:36.298Z,18.40
2017-12-27T19:20:06.629Z,17.00
2017-12-27T19:22:37.726Z,17.60
2017-12-27T19:25:08.281Z,17.80
2017-12-27T19:27:39.420Z,16.90
2017-12-27T19:30:09.839Z,17.93
2017-12-27T19:32:40.958Z,16.50
2017-12-27T19:35:11.280Z,18.70
2017-12-27T19:37:41.850Z,18.70
2017-12-27T19:40:12.997Z,18.67
2017-12-27T19:42:44.338Z,17.53
2017-12-27T19:45:15.452Z,18.67
2017-12-27T19:47:45.805Z,17.40
2017-12-27T19:50:16.942Z,18.20
2017-12-27T19:52:47.338Z,17.37
2017-12-27T19:55:17.906Z,17.73
2017-12-27T19:57:48.239Z,18.37
2017-12-27T20:00:19.449Z,17.60
2017-12-27T20:02:49.751Z,19.17
2017-12-27T20:05:20.082Z,18.33
2017-12-27T20:07:50.421Z,18.10
2017-12-27T20:10:20.787Z,17.80
2017-12-27T20:12:52.116Z,19.60
2017-12-27T20:15:23.231Z,18.17
2017-12-27T20:17:53.621Z,18.60
2017-12-27T20:20:23.957Z,18.70
2017-12-27T20:22:54.284Z,18.10
2017-12-27T20:25:24.967Z,18.73
2017-12-27T20:27:55.291Z,18.30
2017-12-27T20:30:25.925Z,20.40
2017-12-27T20:32:57.020Z,21.83
2017-12-27T20:35:27.361Z,22.47
2017-12-27T20:37:57.746Z,23.13
2017-12-27T20:40:28.056Z,25.10
2017-12-27T20:42:59.491Z,23.87
2017-12-27T20:45:30.689Z,24.57
2017-12-27T20:48:01.132Z,26.13
2017-12-27T20:50:31.534Z,25.27
2017-12-27T20:55:36.098Z,25.60
2017-12-27T20:58:06.448Z,24.20
2017-12-27T21:00:36.982Z,26.40
2017-12-27T21:03:08.096Z,25.90
2017-12-27T21:05:38.432Z,26.80
2017-12-27T21:08:08.772Z,25.80
2017-12-27T21:10:39.138Z,27.13
2017-12-27T21:13:09.805Z,25.97
2017-12-27T21:15:40.951Z,25.70
2017-12-27T21:18:11.400Z,26.97
2017-12-27T21:20:42.517Z,26.40
2017-12-27T21:23:12.872Z,26.50
2017-12-27T21:25:43.976Z,25.63
2017-12-27T21:28:14.309Z,25.97
2017-12-27T21:30:44.942Z,25.40
2017-12-27T21:33:15.295Z,26.80
2017-12-27T21:35:46.448Z,27.57
2017-12-27T21:38:17.600Z,28.40
2017-12-27T21:40:48.670Z,28.00
2017-12-27T21:43:19.247Z,29.40
2017-12-27T21:45:50.471Z,26.30
2017-12-27T21:48:25.956Z,26.50
2017-12-27T21:50:57.053Z,26.40
2017-12-27T21:53:27.439Z,25.90
2017-12-27T21:55:57.775Z,26.57
2017-12-27T21:58:33.335Z,24.87
2017-12-27T22:01:09.132Z,26.57
2017-12-27T22:03:40.279Z,25.10
2017-12-27T22:06:11.389Z,24.70
2017-12-27T22:08:41.784Z,26.77
2017-12-27T22:11:12.141Z,26.43
2017-12-27T22:13:42.798Z,27.53
2017-12-27T22:16:13.946Z,27.10
2017-12-27T22:18:45.066Z,25.77
2017-12-27T22:21:15.443Z,25.30
2017-12-27T22:23:45.819Z,24.93
2017-12-27T22:26:16.263Z,24.40
2017-12-27T22:28:47.382Z,22.20
2017-12-27T22:31:17.909Z,21.90
2017-12-27T22:33:48.295Z,25.03
2017-12-27T22:36:19.418Z,23.67
2017-12-27T22:38:50.525Z,25.30
2017-12-27T22:41:20.843Z,22.70
2017-12-27T22:43:51.611Z,23.23
2017-12-27T22:46:22.711Z,22.43
2017-12-27T22:48:53.057Z,24.40
2017-12-27T22:51:23.447Z,24.90
2017-12-27T22:53:53.848Z,23.70
2017-12-27T22:56:24.360Z,23.20
2017-12-27T22:58:55.475Z,25.53
2017-12-27T23:01:26.023Z,22.93
2017-12-27T23:03:57.127Z,25.47
2017-12-27T23:06:27.494Z,24.27
2017-12-27T23:08:58.621Z,25.70
2017-12-27T23:11:28.961Z,24.57
2017-12-27T23:14:00.518Z,28.17
2017-12-27T23:16:31.729Z,26.13
2017-12-27T23:19:02.247Z,25.07
2017-12-27T23:21:32.576Z,26.50
2017-12-27T23:24:02.970Z,25.83
2017-12-27T23:26:33.349Z,27.80
2017-12-27T23:29:03.691Z,28.63
2017-12-27T23:31:35.033Z,30.60
2017-12-27T23:34:06.151Z,27.90
2017-12-27T23:36:36.468Z,27.47
2017-12-27T23:39:06.996Z,28.77
2017-12-27T23:41:37.360Z,27.70
2017-12-27T23:44:08.806Z,27.97
2017-12-27T23:46:39.933Z,26.00
2017-12-27T23:49:10.372Z,25.43
2017-12-27T23:51:41.479Z,27.27
2017-12-27T23:54:11.883Z,25.23
2017-12-27T23:56:42.805Z,26.20
2017-12-27T23:59:13.188Z,25.17
